createdAt,value
2018-09-24T00:01:58.000Z,3.13
2018-09-24T00:04:01.532Z,3.63
2018-09-24T00:06:05.047Z,2.53
2018-09-24T00:08:08.576Z,3.13
2018-09-24T00:10:12.105Z,2.27
2018-09-24T00:12:15.670Z,2.17
2018-09-24T00:14:19.153Z,1.87
2018-09-24T00:16:22.744Z,1.80
2018-09-24T00:18:26.286Z,2.87
2018-09-24T00:20:29.792Z,2.20
2018-09-24T00:22:33.701Z,2.25
2018-09-24T00:24:37.191Z,1.40
2018-09-24T00:26:40.688Z,2.13
2018-09-24T00:28:44.225Z,1.50
2018-09-24T00:30:47.757Z,2.23
2018-09-24T00:32:51.303Z,2.27
2018-09-24T00:34:54.848Z,2.60
2018-09-24T00:36:58.397Z,3.33
2018-09-24T00:39:01.965Z,3.53
2018-09-24T00:41:05.536Z,2.40
2018-09-24T00:43:09.057Z,3.90
2018-09-24T00:45:12.585Z,2.60
2018-09-24T00:47:22.704Z,2.30
2018-09-24T00:49:26.537Z,2.50
2018-09-24T00:51:30.364Z,3.67
2018-09-24T00:53:34.196Z,2.60
2018-09-24T00:55:37.992Z,2.67
2018-09-24T00:57:41.578Z,3.83
2018-09-24T00:59:45.431Z,2.90
2018-09-24T01:01:49.258Z,2.50
2018-09-24T01:03:52.802Z,3.40
2018-09-24T01:05:56.617Z,2.70
2018-09-24T01:08:00.304Z,3.37
2018-09-24T01:10:04.120Z,4.30
2018-09-24T01:12:08.031Z,3.50
2018-09-24T01:14:11.863Z,2.98
2018-09-24T01:16:15.536Z,4.87
2018-09-24T01:18:19.028Z,3.90
2018-09-24T01:20:22.559Z,4.83
2018-09-24T01:22:26.444Z,3.85
2018-09-24T01:24:30.272Z,3.75
2018-09-24T01:26:33.849Z,4.03
2018-09-24T01:28:37.774Z,3.70
2018-09-24T01:30:41.623Z,3.87
2018-09-24T01:32:45.468Z,3.72
2018-09-24T01:34:49.297Z,5.05
2018-09-24T01:36:53.121Z,4.15
2018-09-24T01:38:56.924Z,4.12
2018-09-24T01:41:00.760Z,5.42
2018-09-24T01:43:04.834Z,4.10
2018-09-24T01:45:08.654Z,3.47
2018-09-24T01:47:12.457Z,3.80
2018-09-24T01:49:16.305Z,4.65
2018-09-24T01:51:20.349Z,4.83
2018-09-24T01:53:24.167Z,5.67
2018-09-24T01:55:27.988Z,4.00
2018-09-24T01:57:31.866Z,3.45
2018-09-24T01:59:35.662Z,4.28
2018-09-24T02:01:45.097Z,3.90
2018-09-24T02:03:49.373Z,5.03
2018-09-24T02:05:53.240Z,3.92
2018-09-24T02:07:57.076Z,4.20
2018-09-24T02:10:00.962Z,5.20
2018-09-24T02:12:06.356Z,5.55
2018-09-24T02:14:10.215Z,5.55
2018-09-24T02:16:14.175Z,6.45
2018-09-24T02:18:18.012Z,5.33
2018-09-24T02:20:21.842Z,4.03
2018-09-24T02:22:27.014Z,5.72
2018-09-24T02:24:30.858Z,4.78
2018-09-24T02:26:34.701Z,4.30
2018-09-24T02:28:38.539Z,5.58
2018-09-24T02:30:42.428Z,6.65
2018-09-24T02:32:46.264Z,7.08
2018-09-24T02:34:51.609Z,10.08
2018-09-24T02:36:55.523Z,9.93
2018-09-24T02:38:59.379Z,9.33
2018-09-24T02:41:03.218Z,8.65
2018-09-24T02:43:07.021Z,10.58
2018-09-24T02:45:10.885Z,6.97
2018-09-24T02:47:14.692Z,7.55
2018-09-24T02:49:18.511Z,9.15
2018-09-24T02:51:22.324Z,8.53
2018-09-24T02:53:26.182Z,7.30
2018-09-24T02:55:32.993Z,8.23
2018-09-24T02:57:36.845Z,6.15
2018-09-24T02:59:45.766Z,5.60
2018-09-24T03:01:49.591Z,5.35
2018-09-24T03:03:53.418Z,4.95
2018-09-24T03:05:57.229Z,6.12
2018-09-24T03:08:01.145Z,4.87
2018-09-24T03:10:05.357Z,5.65
2018-09-24T03:12:09.151Z,6.22
2018-09-24T03:14:13.019Z,7.60
2018-09-24T03:16:16.849Z,10.13
2018-09-24T03:18:20.669Z,7.85
2018-09-24T03:20:24.485Z,7.05
2018-09-24T03:22:28.306Z,5.40
2018-09-24T03:24:32.174Z,9.30
2018-09-24T03:26:41.300Z,5.92
2018-09-24T03:28:45.137Z,7.90
2018-09-24T03:30:48.950Z,6.00
2018-09-24T03:32:52.752Z,8.28
2018-09-24T03:34:56.613Z,6.70
2018-09-24T03:37:00.430Z,6.80
2018-09-24T03:39:04.650Z,7.58
2018-09-24T03:41:08.483Z,6.53
2018-09-24T03:43:12.347Z,6.45
2018-09-24T03:45:16.237Z,5.53
2018-09-24T03:47:20.009Z,6.83
2018-09-24T03:49:23.833Z,7.50
2018-09-24T03:51:27.620Z,5.95
2018-09-24T03:53:31.519Z,12.70
2018-09-24T03:55:35.380Z,18.23
2018-09-24T03:57:39.300Z,8.98
2018-09-24T03:59:43.225Z,14.07
2018-09-24T04:01:47.112Z,9.83
2018-09-24T04:03:50.968Z,10.88
2018-09-24T04:06:00.189Z,10.93
2018-09-24T04:08:09.298Z,10.23
2018-09-24T04:10:18.740Z,8.28
2018-09-24T04:12:27.909Z,7.62
2018-09-24T04:14:37.213Z,8.60
2018-09-24T04:16:46.415Z,12.45
2018-09-24T04:18:55.578Z,10.32
2018-09-24T04:21:04.581Z,8.98
2018-09-24T04:23:13.767Z,8.55
2018-09-24T04:25:22.823Z,7.90
2018-09-24T04:27:31.797Z,9.00
2018-09-24T04:29:41.005Z,8.45
2018-09-24T04:31:50.545Z,7.45
2018-09-24T04:33:59.745Z,8.73
2018-09-24T04:36:08.773Z,9.20
2018-09-24T04:38:17.895Z,7.92
2018-09-24T04:40:27.076Z,9.20
2018-09-24T04:42:40.280Z,8.98
2018-09-24T04:44:50.194Z,9.33
2018-09-24T04:47:00.620Z,10.90
2018-09-24T04:49:14.155Z,7.92
2018-09-24T04:51:24.998Z,9.45
2018-09-24T04:53:35.018Z,8.43
2018-09-24T04:55:44.294Z,8.68
2018-09-24T04:57:53.457Z,13.58
2018-09-24T05:00:02.983Z,7.03
2018-09-24T05:02:12.144Z,8.05
2018-09-24T05:04:21.231Z,6.92
2018-09-24T05:06:30.340Z,12.13
2018-09-24T05:08:39.396Z,9.20
2018-09-24T05:10:48.648Z,8.73
2018-09-24T05:12:57.637Z,7.15
2018-09-24T05:15:06.778Z,9.83
2018-09-24T05:17:15.956Z,12.90
2018-09-24T05:19:25.041Z,13.68
2018-09-24T05:21:34.229Z,9.10
2018-09-24T05:23:43.240Z,10.75
2018-09-24T05:25:52.420Z,9.35
2018-09-24T05:28:01.699Z,13.40
2018-09-24T05:30:10.988Z,8.53
2018-09-24T05:32:20.136Z,10.55
2018-09-24T05:34:29.649Z,9.23
2018-09-24T05:36:39.110Z,9.65
2018-09-24T05:38:48.235Z,13.13
2018-09-24T05:40:57.338Z,12.35
2018-09-24T05:43:06.513Z,8.78
2018-09-24T05:45:15.679Z,7.83
2018-09-24T05:47:24.964Z,10.03
2018-09-24T05:49:34.323Z,10.28
2018-09-24T05:51:43.507Z,11.57
2018-09-24T05:53:52.781Z,10.03
2018-09-24T05:56:02.048Z,9.08
2018-09-24T05:58:11.482Z,7.35
2018-09-24T06:00:20.617Z,9.98
2018-09-24T06:02:29.696Z,9.10
2018-09-24T06:04:41.866Z,7.47
2018-09-24T06:06:52.786Z,11.20
2018-09-24T06:09:05.791Z,10.25
2018-09-24T06:11:14.865Z,7.33
2018-09-24T06:13:24.070Z,7.85
2018-09-24T06:15:33.233Z,7.35
2018-09-24T06:17:42.396Z,5.20
2018-09-24T06:19:51.556Z,5.40
2018-09-24T06:22:01.088Z,3.63
2018-09-24T06:24:11.897Z,4.03
2018-09-24T06:26:20.785Z,3.43
2018-09-24T06:28:30.035Z,4.23
2018-09-24T06:30:38.925Z,3.43
2018-09-24T06:32:48.161Z,3.27
2018-09-24T06:34:57.012Z,2.83
2018-09-24T06:37:06.020Z,4.53
2018-09-24T06:39:15.018Z,3.27
2018-09-24T06:41:24.320Z,5.53
2018-09-24T06:43:33.291Z,3.60
2018-09-24T06:45:43.442Z,3.57
2018-09-24T06:47:52.267Z,2.70
2018-09-24T06:50:01.765Z,3.73
2018-09-24T06:52:11.173Z,3.50
2018-09-24T06:54:20.601Z,2.57
2018-09-24T06:56:29.997Z,6.23
2018-09-24T06:58:38.902Z,2.70
2018-09-24T07:00:48.929Z,2.67
2018-09-24T07:03:00.692Z,3.03
2018-09-24T07:05:09.346Z,4.17
2018-09-24T07:07:18.162Z,3.50
2018-09-24T07:09:27.113Z,2.50
2018-09-24T07:11:35.872Z,3.80
2018-09-24T07:13:44.997Z,3.40
2018-09-24T07:15:53.878Z,4.30
2018-09-24T07:18:02.754Z,3.90
2018-09-24T07:20:12.126Z,4.57
2018-09-24T07:22:20.889Z,3.43
2018-09-24T07:24:29.593Z,4.20
2018-09-24T07:26:38.891Z,4.83
2018-09-24T07:28:49.078Z,2.90
2018-09-24T07:30:57.896Z,4.87
2018-09-24T07:33:06.919Z,3.13
2018-09-24T07:35:16.269Z,3.40
2018-09-24T07:37:25.029Z,4.30
2018-09-24T07:39:33.910Z,2.87
2018-09-24T07:41:43.521Z,4.67
2018-09-24T07:43:52.430Z,4.10
2018-09-24T07:46:01.835Z,3.50
2018-09-24T07:48:12.506Z,4.50
2018-09-24T07:50:23.748Z,5.60
2018-09-24T07:52:37.936Z,3.10
2018-09-24T07:54:48.975Z,2.97
2018-09-24T07:56:59.025Z,4.93
2018-09-24T07:59:08.712Z,4.53
2018-09-24T08:01:18.383Z,4.27
2018-09-24T08:03:36.560Z,2.83
2018-09-24T08:05:47.479Z,3.33
2018-09-24T08:07:57.139Z,5.27
2018-09-24T08:10:06.991Z,4.30
2018-09-24T08:12:17.762Z,5.00
2018-09-24T08:14:28.169Z,5.03
2018-09-24T08:16:37.980Z,4.73
2018-09-24T08:18:46.773Z,5.43
2018-09-24T08:20:56.779Z,4.33
2018-09-24T08:23:06.493Z,4.73
2018-09-24T08:25:16.239Z,4.87
2018-09-24T08:27:25.476Z,2.97
2018-09-24T08:29:35.450Z,4.37
2018-09-24T08:31:44.325Z,5.23
2018-09-24T08:33:53.506Z,5.30
2018-09-24T08:36:03.120Z,7.07
2018-09-24T08:38:12.624Z,4.30
2018-09-24T08:40:23.438Z,5.10
2018-09-24T08:42:33.578Z,3.97
2018-09-24T08:44:43.087Z,6.53
2018-09-24T08:46:52.036Z,6.23
2018-09-24T08:49:01.760Z,5.97
2018-09-24T08:51:10.874Z,4.20
2018-09-24T08:53:22.000Z,3.73
2018-09-24T08:55:31.685Z,4.13
2018-09-24T08:57:40.908Z,3.80
2018-09-24T08:59:50.510Z,4.40
2018-09-24T09:02:00.725Z,3.67
2018-09-24T09:04:10.685Z,4.67
2018-09-24T09:06:19.928Z,5.77
2018-09-24T09:08:28.981Z,4.43
2018-09-24T09:10:38.686Z,6.43
2018-09-24T09:12:47.610Z,7.23
2018-09-24T09:14:57.149Z,5.97
2018-09-24T09:17:06.238Z,6.30
2018-09-24T09:19:15.715Z,5.70
2018-09-24T09:21:25.277Z,4.47
2018-09-24T09:23:34.176Z,3.67
2018-09-24T09:25:43.663Z,8.47
2018-09-24T09:27:52.604Z,6.50
2018-09-24T09:30:01.877Z,6.53
2018-09-24T09:32:16.930Z,7.13
2018-09-24T09:34:33.068Z,9.43
2018-09-24T09:36:42.711Z,6.40
2018-09-24T09:38:52.065Z,5.13
2018-09-24T09:41:02.230Z,6.07
2018-09-24T09:43:12.358Z,3.53
2018-09-24T09:45:21.573Z,5.23
2018-09-24T09:47:30.863Z,4.47
2018-09-24T09:49:42.296Z,4.83
2018-09-24T09:51:53.061Z,5.80
2018-09-24T09:54:02.494Z,3.33
2018-09-24T09:56:16.339Z,4.33
2018-09-24T09:58:29.041Z,4.77
2018-09-24T10:00:38.639Z,5.13
2018-09-24T10:02:50.155Z,2.70
2018-09-24T10:04:59.928Z,3.47
2018-09-24T10:07:09.211Z,5.53
2018-09-24T10:09:19.629Z,3.93
2018-09-24T10:11:29.041Z,4.73
2018-09-24T10:13:38.345Z,5.72
2018-09-24T10:15:47.500Z,4.43
2018-09-24T10:17:57.512Z,5.13
2018-09-24T10:20:06.656Z,5.57
2018-09-24T10:22:16.969Z,5.03
2018-09-24T10:24:25.952Z,4.90
2018-09-24T10:26:35.204Z,3.23
2018-09-24T10:28:44.422Z,3.37
2018-09-24T10:30:53.424Z,3.37
2018-09-24T10:33:03.167Z,5.37
2018-09-24T10:35:12.525Z,3.67
2018-09-24T10:37:21.503Z,3.67
2018-09-24T10:39:31.224Z,6.43
2018-09-24T10:41:40.628Z,8.20
2018-09-24T10:43:49.790Z,4.23
2018-09-24T10:45:59.019Z,6.07
2018-09-24T10:48:08.343Z,5.40
2018-09-24T10:50:17.509Z,4.33
2018-09-24T10:52:27.534Z,5.30
2018-09-24T10:54:37.767Z,10.70
2018-09-24T10:56:47.368Z,3.70
2018-09-24T10:58:57.435Z,3.20
2018-09-24T11:01:06.607Z,2.83
2018-09-24T11:03:15.965Z,4.40
2018-09-24T11:05:25.315Z,5.17
2018-09-24T11:07:34.195Z,2.80
2018-09-24T11:09:43.422Z,3.37
2018-09-24T11:11:52.939Z,4.70
2018-09-24T11:14:02.331Z,4.40
2018-09-24T11:16:13.278Z,4.53
2018-09-24T11:18:25.867Z,4.07
2018-09-24T11:20:41.504Z,3.93
2018-09-24T11:22:51.192Z,5.47
2018-09-24T11:25:00.392Z,6.53
2018-09-24T11:27:09.515Z,6.03
2018-09-24T11:29:19.190Z,3.13
2018-09-24T11:31:35.894Z,7.62
2018-09-24T11:33:44.810Z,5.87
2018-09-24T11:35:54.334Z,4.93
2018-09-24T11:38:04.026Z,2.70
2018-09-24T11:40:13.362Z,3.37
2018-09-24T11:42:22.722Z,5.00
2018-09-24T11:44:31.825Z,4.67
2018-09-24T11:46:41.731Z,3.87
2018-09-24T11:48:53.519Z,7.90
2018-09-24T11:53:31.253Z,4.43
2018-09-24T11:55:41.916Z,3.87
2018-09-24T11:57:57.254Z,6.17
2018-09-24T12:00:06.006Z,5.13
2018-09-24T12:02:15.099Z,6.40
2018-09-24T12:04:24.178Z,3.57
2018-09-24T12:06:33.643Z,3.13
2018-09-24T12:08:43.448Z,3.03
2018-09-24T12:10:53.974Z,4.47
2018-09-24T12:13:03.937Z,3.93
2018-09-24T12:15:24.187Z,3.10
2018-09-24T12:17:33.526Z,3.57
2018-09-24T12:19:43.444Z,5.73
2018-09-24T12:21:56.322Z,3.73
2018-09-24T12:24:05.731Z,3.73
2018-09-24T12:26:15.102Z,3.37
2018-09-24T12:28:24.408Z,3.50
2018-09-24T12:30:33.867Z,3.00
2018-09-24T12:32:44.332Z,2.97
2018-09-24T12:34:53.180Z,3.37
2018-09-24T12:37:04.115Z,3.00
2018-09-24T12:39:13.088Z,5.40
2018-09-24T12:41:23.604Z,2.47
2018-09-24T12:43:32.764Z,3.63
2018-09-24T12:45:42.885Z,2.93
2018-09-24T12:47:52.102Z,3.23
2018-09-24T12:50:01.958Z,2.90
2018-09-24T12:52:12.408Z,3.30
2018-09-24T12:54:21.237Z,2.40
2018-09-24T12:56:30.287Z,2.60
2018-09-24T12:58:39.676Z,2.57
2018-09-24T13:00:48.472Z,3.33
2018-09-24T13:02:57.276Z,1.90
2018-09-24T13:05:06.894Z,2.43
2018-09-24T13:07:16.075Z,3.30
2018-09-24T13:09:25.512Z,3.50
2018-09-24T13:11:34.459Z,3.67
2018-09-24T13:13:43.321Z,6.77
2018-09-24T13:15:52.108Z,2.53
2018-09-24T13:18:01.007Z,3.10
2018-09-24T13:20:09.968Z,2.73
2018-09-24T13:22:19.241Z,3.67
2018-09-24T13:24:28.222Z,5.83
2018-09-24T13:26:36.981Z,4.57
2018-09-24T13:28:45.822Z,4.80
2018-09-24T13:33:24.473Z,3.20
2018-09-24T13:35:33.310Z,4.17
2018-09-24T13:37:42.179Z,4.63
2018-09-24T13:39:50.983Z,4.43
2018-09-24T13:41:59.790Z,6.03
2018-09-24T13:44:08.501Z,4.40
2018-09-24T13:46:17.198Z,3.20
2018-09-24T13:48:25.879Z,6.93
2018-09-24T13:50:34.737Z,5.67
2018-09-24T13:52:43.505Z,2.90
2018-09-24T13:54:52.372Z,5.30
2018-09-24T13:57:01.061Z,3.23
2018-09-24T13:59:09.936Z,3.63
2018-09-24T14:01:18.734Z,5.30
2018-09-24T14:03:27.621Z,3.80
2018-09-24T14:05:36.485Z,4.83
2018-09-24T14:07:45.600Z,2.93
2018-09-24T14:09:54.401Z,2.33
2018-09-24T14:12:03.214Z,3.67
2018-09-24T14:14:12.374Z,5.07
2018-09-24T14:16:21.126Z,1.93
2018-09-24T14:18:29.921Z,3.73
2018-09-24T14:20:38.927Z,4.70
2018-09-24T14:22:47.646Z,4.20
2018-09-24T14:24:56.364Z,2.03
2018-09-24T14:27:05.181Z,3.40
2018-09-24T14:29:13.930Z,6.10
2018-09-24T14:31:22.740Z,1.97
2018-09-24T14:33:31.443Z,2.83
2018-09-24T14:35:40.239Z,5.17
2018-09-24T14:37:49.066Z,2.47
2018-09-24T14:39:57.877Z,2.33
2018-09-24T14:42:06.619Z,3.77
2018-09-24T14:44:15.413Z,4.97
2018-09-24T14:46:24.158Z,3.80
2018-09-24T14:48:32.916Z,2.83
2018-09-24T14:50:42.045Z,4.10
2018-09-24T14:52:50.881Z,3.83
2018-09-24T14:54:59.804Z,2.47
2018-09-24T14:57:09.270Z,3.87
2018-09-24T14:59:18.056Z,1.73
2018-09-24T15:01:26.803Z,4.33
2018-09-24T15:03:35.584Z,2.50
2018-09-24T15:05:44.324Z,1.77
2018-09-24T15:07:53.180Z,2.93
2018-09-24T15:10:01.856Z,4.53
2018-09-24T15:12:11.129Z,1.43
2018-09-24T15:14:19.940Z,3.27
2018-09-24T15:16:28.766Z,2.70
2018-09-24T15:18:37.520Z,3.03
2018-09-24T15:20:46.244Z,3.53
2018-09-24T15:22:54.845Z,3.47
2018-09-24T15:25:03.596Z,3.37
2018-09-24T15:27:12.335Z,4.00
2018-09-24T15:29:21.136Z,4.63
2018-09-24T15:31:29.925Z,3.23
2018-09-24T15:33:38.701Z,3.97
2018-09-24T15:35:47.583Z,3.40
2018-09-24T15:37:56.321Z,6.57
2018-09-24T15:40:05.262Z,3.73
2018-09-24T15:42:14.159Z,2.73
2018-09-24T15:44:23.105Z,2.67
2018-09-24T15:46:31.925Z,3.60
2018-09-24T15:48:40.667Z,3.27
2018-09-24T15:50:49.337Z,5.70
2018-09-24T15:52:58.084Z,3.23
2018-09-24T15:55:06.728Z,4.07
2018-09-24T15:57:15.548Z,2.77
2018-09-24T15:59:24.228Z,3.00
2018-09-24T16:01:33.261Z,3.67
2018-09-24T16:03:42.075Z,5.10
2018-09-24T16:05:50.915Z,4.07
2018-09-24T16:07:59.708Z,3.30
2018-09-24T16:10:08.598Z,3.50
2018-09-24T16:12:17.337Z,3.00
2018-09-24T16:14:26.177Z,3.63
2018-09-24T16:16:34.944Z,3.47
2018-09-24T16:18:43.792Z,3.63
2018-09-24T16:20:52.504Z,2.57
2018-09-24T16:23:01.232Z,3.07
2018-09-24T16:25:10.338Z,2.00
2018-09-24T16:27:19.124Z,6.43
2018-09-24T16:29:27.883Z,4.90
2018-09-24T16:31:36.632Z,2.63
2018-09-24T16:33:45.488Z,4.07
2018-09-24T16:35:54.258Z,3.87
2018-09-24T16:38:02.917Z,4.63
2018-09-24T16:40:12.080Z,1.50
2018-09-24T16:42:20.872Z,3.07
2018-09-24T16:44:29.696Z,3.70
2018-09-24T16:46:38.541Z,2.90
2018-09-24T16:48:47.498Z,3.97
2018-09-24T16:50:56.186Z,2.07
2018-09-24T16:53:05.023Z,1.23
2018-09-24T16:55:13.872Z,3.20
2018-09-24T16:57:22.844Z,5.00
2018-09-24T16:59:31.630Z,3.77
2018-09-24T17:01:40.456Z,1.70
2018-09-24T17:03:49.269Z,1.77
2018-09-24T17:05:58.102Z,1.93
2018-09-24T17:08:07.012Z,2.10
2018-09-24T17:10:16.243Z,2.93
2018-09-24T17:12:25.002Z,5.27
2018-09-24T17:14:33.741Z,1.90
2018-09-24T17:16:42.608Z,2.63
2018-09-24T17:18:51.732Z,3.37
2018-09-24T17:21:00.523Z,2.70
2018-09-24T17:23:09.373Z,2.43
2018-09-24T17:25:18.130Z,3.03
2018-09-24T17:27:26.808Z,3.87
2018-09-24T17:29:35.570Z,3.43
2018-09-24T17:31:44.426Z,1.53
2018-09-24T17:33:53.312Z,3.80
2018-09-24T17:36:02.164Z,3.30
2018-09-24T17:38:10.853Z,5.07
2018-09-24T17:40:19.684Z,3.20
2018-09-24T17:42:28.406Z,2.70
2018-09-24T17:44:37.276Z,1.50
2018-09-24T17:46:46.181Z,2.60
2018-09-24T17:48:54.963Z,1.93
2018-09-24T17:51:03.823Z,1.40
2018-09-24T17:53:13.090Z,3.03
2018-09-24T17:55:21.979Z,2.47
2018-09-24T17:57:30.742Z,3.57
2018-09-24T17:59:39.681Z,5.13
2018-09-24T18:01:48.540Z,2.43
2018-09-24T18:03:57.301Z,2.13
2018-09-24T18:06:06.190Z,1.83
2018-09-24T18:08:15.067Z,5.07
2018-09-24T18:10:23.980Z,2.53
2018-09-24T18:12:32.737Z,1.63
2018-09-24T18:14:41.562Z,3.13
2018-09-24T18:16:50.274Z,3.10
2018-09-24T18:18:58.994Z,2.60
2018-09-24T18:21:07.828Z,3.20
2018-09-24T18:23:16.547Z,3.57
2018-09-24T18:25:25.270Z,3.83
2018-09-24T18:27:33.992Z,2.27
2018-09-24T18:29:42.905Z,2.40
2018-09-24T18:31:51.724Z,3.63
2018-09-24T18:34:00.452Z,2.50
2018-09-24T18:36:09.355Z,3.23
2018-09-24T18:38:17.985Z,1.63
2018-09-24T18:40:26.615Z,2.53
2018-09-24T18:42:35.406Z,2.77
2018-09-24T18:44:44.266Z,2.17
2018-09-24T18:46:53.011Z,3.90
2018-09-24T18:49:01.754Z,3.13
2018-09-24T18:51:10.716Z,3.17
2018-09-24T18:53:19.439Z,3.63
2018-09-24T18:55:28.182Z,2.53
2018-09-24T18:57:37.032Z,2.20
2018-09-24T18:59:45.908Z,2.33
2018-09-24T19:01:54.852Z,4.33
2018-09-24T19:04:03.621Z,3.70
2018-09-24T19:06:12.680Z,1.53
2018-09-24T19:08:21.500Z,2.97
2018-09-24T19:10:30.248Z,2.03
2018-09-24T19:12:38.925Z,1.20
2018-09-24T19:14:48.331Z,3.50
2018-09-24T19:16:57.072Z,1.23
2018-09-24T19:19:05.873Z,3.17
2018-09-24T19:21:14.623Z,2.97
2018-09-24T19:23:23.437Z,2.10
2018-09-24T19:25:32.270Z,2.63
2018-09-24T19:27:41.029Z,1.97
2018-09-24T19:29:49.964Z,5.93
2018-09-24T19:31:58.745Z,4.67
2018-09-24T19:34:07.513Z,6.00
2018-09-24T19:36:16.359Z,2.93
2018-09-24T19:38:25.226Z,4.47
2018-09-24T19:40:34.003Z,7.23
2018-09-24T19:42:43.181Z,2.15
2018-09-24T19:44:52.352Z,3.22
2018-09-24T19:47:01.061Z,3.07
2018-09-24T19:49:10.165Z,5.08
2018-09-24T19:51:19.324Z,2.83
2018-09-24T19:53:28.301Z,8.28
2018-09-24T19:55:37.307Z,3.72
2018-09-24T19:57:46.516Z,4.12
2018-09-24T19:59:55.726Z,6.08
2018-09-24T20:02:04.774Z,4.17
2018-09-24T20:04:13.744Z,3.85
2018-09-24T20:06:22.757Z,5.22
2018-09-24T20:08:31.812Z,3.87
2018-09-24T20:10:40.957Z,6.67
2018-09-24T20:12:50.019Z,4.58
2018-09-24T20:14:59.101Z,7.80
2018-09-24T20:17:08.221Z,6.92
2018-09-24T20:19:17.273Z,5.12
2018-09-24T20:21:26.279Z,2.25
2018-09-24T20:23:35.361Z,4.90
2018-09-24T20:25:44.581Z,4.03
2018-09-24T20:27:53.669Z,7.15
2018-09-24T20:30:02.612Z,5.35
2018-09-24T20:32:11.650Z,4.17
2018-09-24T20:34:20.824Z,6.25
2018-09-24T20:36:29.849Z,5.40
2018-09-24T20:38:39.054Z,8.05
2018-09-24T20:40:48.035Z,6.15
2018-09-24T20:42:57.081Z,4.20
2018-09-24T20:45:06.266Z,3.47
2018-09-24T20:47:15.197Z,5.65
2018-09-24T20:49:24.149Z,5.83
2018-09-24T20:51:33.236Z,6.25
2018-09-24T20:53:42.312Z,3.62
2018-09-24T20:55:51.592Z,3.75
2018-09-24T20:58:01.410Z,6.58
2018-09-24T21:00:11.243Z,6.55
2018-09-24T21:02:20.165Z,5.15
2018-09-24T21:04:29.118Z,6.75
2018-09-24T21:06:38.184Z,6.45
2018-09-24T21:08:47.330Z,4.00
2018-09-24T21:10:56.536Z,5.62
2018-09-24T21:13:05.571Z,5.03
2018-09-24T21:15:14.963Z,4.95
2018-09-24T21:17:24.017Z,6.90
2018-09-24T21:19:33.160Z,5.28
2018-09-24T21:21:42.168Z,4.83
2018-09-24T21:23:51.299Z,6.70
2018-09-24T21:26:00.193Z,4.95
2018-09-24T21:28:09.381Z,3.33
2018-09-24T21:30:18.351Z,5.50
2018-09-24T21:32:27.293Z,3.65
2018-09-24T21:34:36.348Z,5.17
2018-09-24T21:36:45.563Z,6.92
2018-09-24T21:38:54.640Z,5.92
2018-09-24T21:41:03.728Z,4.87
2018-09-24T21:43:12.786Z,5.50
2018-09-24T21:45:21.936Z,5.28
2018-09-24T21:47:31.019Z,3.95
2018-09-24T21:49:40.055Z,5.67
2018-09-24T21:51:49.016Z,6.08
2018-09-24T21:53:58.223Z,3.80
2018-09-24T21:56:07.414Z,3.25
2018-09-24T21:58:16.518Z,5.08
2018-09-24T22:00:25.637Z,6.70
2018-09-24T22:02:34.776Z,5.42
2018-09-24T22:04:43.848Z,5.08
2018-09-24T22:06:53.055Z,3.95
2018-09-24T22:09:02.270Z,5.10
2018-09-24T22:11:11.454Z,4.03
2018-09-24T22:13:20.540Z,4.55
2018-09-24T22:15:29.532Z,3.98
2018-09-24T22:17:38.584Z,4.00
2018-09-24T22:19:47.635Z,3.27
2018-09-24T22:21:56.809Z,4.87
2018-09-24T22:24:05.893Z,6.47
2018-09-24T22:26:14.792Z,5.80
2018-09-24T22:28:23.763Z,5.20
2018-09-24T22:30:32.739Z,6.87
2018-09-24T22:32:41.610Z,5.10
2018-09-24T22:34:50.728Z,5.80
2018-09-24T22:36:59.681Z,6.92
2018-09-24T22:39:08.685Z,3.70
2018-09-24T22:41:17.658Z,5.22
2018-09-24T22:43:26.679Z,4.75
2018-09-24T22:45:35.712Z,4.58
2018-09-24T22:47:44.948Z,5.22
2018-09-24T22:49:53.935Z,5.37
2018-09-24T22:52:02.960Z,8.83
2018-09-24T22:54:12.407Z,4.80
2018-09-24T22:56:21.527Z,3.92
2018-09-24T22:58:30.551Z,7.53
2018-09-24T23:00:39.617Z,4.20
2018-09-24T23:02:48.599Z,6.87
2018-09-24T23:04:57.771Z,2.55
2018-09-24T23:07:06.888Z,5.53
2018-09-24T23:09:16.017Z,3.80
2018-09-24T23:11:24.949Z,5.83
2018-09-24T23:13:33.838Z,4.62
2018-09-24T23:15:43.062Z,6.40
2018-09-24T23:17:52.166Z,7.28
2018-09-24T23:20:01.160Z,3.47
2018-09-24T23:22:10.364Z,7.80
2018-09-24T23:24:19.375Z,5.95
2018-09-24T23:26:28.447Z,6.37
2018-09-24T23:28:37.458Z,4.78
2018-09-24T23:30:46.567Z,8.90
2018-09-24T23:32:55.772Z,5.03
2018-09-24T23:35:04.816Z,5.97
2018-09-24T23:37:13.844Z,5.22
2018-09-24T23:39:22.969Z,4.70
2018-09-24T23:41:32.032Z,3.70
2018-09-24T23:43:41.018Z,3.55
2018-09-24T23:45:50.247Z,4.40
2018-09-24T23:47:59.286Z,4.33
2018-09-24T23:50:08.836Z,5.65
2018-09-24T23:52:18.003Z,4.28
2018-09-24T23:54:26.953Z,4.17
2018-09-24T23:56:36.008Z,5.50
2018-09-24T23:58:45.139Z,4.00
